createdAt,value
2018-12-06T00:00:53.194Z,19.82
2018-12-06T00:03:23.990Z,18.57
2018-12-06T00:05:54.703Z,19.67
2018-12-06T00:08:25.514Z,17.70
2018-12-06T00:10:56.239Z,17.27
2018-12-06T00:13:26.946Z,21.12
2018-12-06T00:15:57.688Z,20.27
2018-12-06T00:18:28.471Z,18.67
2018-12-06T00:20:59.205Z,22.07
2018-12-06T00:23:33.516Z,18.92
2018-12-06T00:26:08.504Z,20.65
2018-12-06T00:28:43.817Z,17.57
2018-12-06T00:31:18.916Z,18.40
2018-12-06T00:33:56.466Z,21.17
2018-12-06T00:36:32.344Z,19.65
2018-12-06T00:39:12.742Z,20.30
2018-12-06T00:41:46.962Z,19.00
2018-12-06T00:44:23.383Z,17.15
2018-12-06T00:46:58.302Z,16.42
2018-12-06T00:49:31.921Z,19.75
2018-12-06T00:52:05.300Z,17.35
2018-12-06T00:54:38.850Z,16.97
2018-12-06T00:57:11.194Z,19.48
2018-12-06T00:59:43.781Z,19.02
2018-12-06T01:02:16.271Z,19.65
2018-12-06T01:04:48.690Z,19.10
2018-12-06T01:07:21.072Z,17.77
2018-12-06T01:09:53.283Z,18.98
2018-12-06T01:12:25.490Z,19.85
2018-12-06T01:14:57.400Z,19.92
2018-12-06T01:17:29.629Z,18.92
2018-12-06T01:20:00.935Z,17.92
2018-12-06T01:22:31.822Z,14.60
2018-12-06T01:25:02.534Z,20.20
2018-12-06T01:27:33.245Z,18.25
2018-12-06T01:30:04.837Z,19.95
2018-12-06T01:32:35.809Z,18.62
2018-12-06T01:35:06.551Z,17.15
2018-12-06T01:37:37.549Z,15.23
2018-12-06T01:40:08.389Z,17.37
2018-12-06T01:42:39.138Z,20.80
2018-12-06T01:45:09.889Z,16.77
2018-12-06T01:47:40.623Z,16.10
2018-12-06T01:50:11.367Z,20.80
2018-12-06T01:52:42.102Z,21.00
2018-12-06T01:55:12.924Z,23.22
2018-12-06T01:57:43.649Z,19.20
2018-12-06T02:00:15.038Z,19.32
2018-12-06T02:02:45.778Z,17.87
2018-12-06T02:05:16.487Z,21.82
2018-12-06T02:07:47.205Z,17.70
2018-12-06T02:10:17.945Z,16.48
2018-12-06T02:12:48.666Z,19.32
2018-12-06T02:15:19.390Z,17.32
2018-12-06T02:17:50.101Z,17.98
2018-12-06T02:20:20.835Z,19.15
2018-12-06T02:22:51.545Z,19.12
2018-12-06T02:25:22.274Z,17.80
2018-12-06T02:27:52.970Z,16.70
2018-12-06T02:30:23.778Z,16.52
2018-12-06T02:32:54.475Z,18.92
2018-12-06T02:35:25.201Z,18.42
2018-12-06T02:37:55.900Z,18.48
2018-12-06T02:40:26.920Z,19.17
2018-12-06T02:42:57.841Z,20.72
2018-12-06T02:45:28.943Z,23.27
2018-12-06T02:47:59.651Z,21.52
2018-12-06T02:50:30.391Z,19.27
2018-12-06T02:53:01.090Z,19.30
2018-12-06T02:55:31.943Z,20.40
2018-12-06T02:58:02.865Z,19.25
2018-12-06T03:00:33.595Z,21.77
2018-12-06T03:03:04.313Z,16.27
2018-12-06T03:05:35.016Z,19.20
2018-12-06T03:08:05.729Z,16.82
2018-12-06T03:10:36.461Z,18.80
2018-12-06T03:13:07.186Z,16.45
2018-12-06T03:15:37.913Z,19.82
2018-12-06T03:18:08.609Z,17.17
2018-12-06T03:20:39.352Z,20.97
2018-12-06T03:23:10.320Z,15.85
2018-12-06T03:25:41.263Z,19.52
2018-12-06T03:28:12.003Z,18.32
2018-12-06T03:30:42.730Z,19.60
2018-12-06T03:33:13.675Z,18.67
2018-12-06T03:35:44.737Z,20.62
2018-12-06T03:38:15.464Z,17.10
2018-12-06T03:40:46.243Z,17.62
2018-12-06T03:43:16.962Z,18.85
2018-12-06T03:45:47.992Z,17.90
2018-12-06T03:48:18.730Z,18.37
2018-12-06T03:50:49.472Z,17.07
2018-12-06T03:53:20.432Z,19.85
2018-12-06T03:55:51.173Z,16.93
2018-12-06T03:58:21.878Z,15.03
2018-12-06T04:00:52.899Z,18.73
2018-12-06T04:03:23.615Z,13.40
2018-12-06T04:05:54.342Z,17.70
2018-12-06T04:08:25.038Z,15.68
2018-12-06T04:10:55.878Z,16.55
2018-12-06T04:13:26.840Z,16.32
2018-12-06T04:15:57.803Z,16.17
2018-12-06T04:18:28.612Z,15.23
2018-12-06T04:20:59.331Z,14.68
2018-12-06T04:23:30.050Z,18.17
2018-12-06T04:26:00.746Z,18.98
2018-12-06T04:28:31.473Z,15.50
2018-12-06T04:31:02.166Z,18.37
2018-12-06T04:33:33.227Z,16.50
2018-12-06T04:36:03.963Z,14.20
2018-12-06T04:38:34.924Z,15.32
2018-12-06T04:41:05.618Z,14.55
2018-12-06T04:43:36.371Z,14.20
2018-12-06T04:46:07.289Z,13.80
2018-12-06T04:48:38.027Z,16.12
2018-12-06T04:51:08.724Z,14.53
2018-12-06T04:53:39.692Z,15.30
2018-12-06T04:56:10.469Z,14.65
2018-12-06T04:58:41.217Z,17.62
2018-12-06T05:01:11.918Z,16.90
2018-12-06T05:03:42.918Z,15.70
2018-12-06T05:06:13.684Z,14.25
2018-12-06T05:08:44.614Z,20.48
2018-12-06T05:11:15.340Z,16.70
2018-12-06T05:13:46.257Z,15.53
2018-12-06T05:16:16.975Z,13.88
2018-12-06T05:18:47.675Z,16.77
2018-12-06T05:21:18.390Z,16.10
2018-12-06T05:23:49.089Z,14.93
2018-12-06T05:26:19.795Z,13.43
2018-12-06T05:28:50.516Z,12.63
2018-12-06T05:31:21.246Z,15.18
2018-12-06T05:33:51.933Z,14.20
2018-12-06T05:36:22.639Z,15.50
2018-12-06T05:38:53.362Z,16.93
2018-12-06T05:41:24.089Z,16.73
2018-12-06T05:43:54.858Z,13.53
2018-12-06T05:46:25.557Z,14.13
2018-12-06T05:48:56.269Z,15.05
2018-12-06T05:51:26.985Z,16.65
2018-12-06T05:53:57.688Z,15.35
2018-12-06T05:56:28.401Z,15.35
2018-12-06T05:58:59.067Z,14.45
2018-12-06T06:01:29.786Z,15.15
2018-12-06T06:04:00.498Z,12.63
2018-12-06T06:06:31.234Z,17.45
2018-12-06T06:09:01.929Z,15.03
2018-12-06T06:11:32.651Z,15.30
2018-12-06T06:14:03.624Z,16.02
2018-12-06T06:16:34.326Z,15.00
2018-12-06T06:19:05.008Z,14.43
2018-12-06T06:21:35.751Z,15.48
2018-12-06T06:24:06.673Z,15.20
2018-12-06T06:26:37.409Z,13.35
2018-12-06T06:29:08.090Z,16.32
2018-12-06T06:31:38.817Z,15.48
2018-12-06T06:34:09.574Z,14.78
2018-12-06T06:36:40.352Z,14.10
2018-12-06T06:39:11.078Z,13.40
2018-12-06T06:41:41.783Z,13.40
2018-12-06T06:44:12.506Z,11.12
2018-12-06T06:46:43.244Z,17.07
2018-12-06T06:49:14.251Z,11.85
2018-12-06T06:51:45.314Z,11.75
2018-12-06T06:54:16.046Z,12.55
2018-12-06T06:56:46.738Z,12.65
2018-12-06T06:59:17.464Z,11.18
2018-12-06T07:01:48.481Z,11.12
2018-12-06T07:04:19.284Z,10.58
2018-12-06T07:06:50.011Z,10.90
2018-12-06T07:09:20.742Z,11.10
2018-12-06T07:11:51.434Z,11.40
2018-12-06T07:14:22.250Z,12.37
2018-12-06T07:16:53.037Z,12.30
2018-12-06T07:19:23.762Z,12.18
2018-12-06T07:21:54.524Z,10.85
2018-12-06T07:24:25.273Z,11.43
2018-12-06T07:26:55.974Z,10.93
2018-12-06T07:29:26.745Z,9.35
2018-12-06T07:31:57.436Z,10.10
2018-12-06T07:34:28.191Z,11.28
2018-12-06T07:36:59.118Z,10.48
2018-12-06T07:39:29.849Z,12.10
2018-12-06T07:42:00.629Z,8.78
2018-12-06T07:44:31.605Z,9.15
2018-12-06T07:47:02.343Z,8.98
2018-12-06T07:49:33.058Z,8.05
2018-12-06T07:52:03.862Z,10.65
2018-12-06T07:54:34.844Z,10.10
2018-12-06T07:57:05.749Z,7.40
2018-12-06T07:59:36.469Z,8.05
2018-12-06T08:02:07.159Z,9.13
2018-12-06T08:04:37.875Z,7.03
2018-12-06T08:07:08.595Z,7.40
2018-12-06T08:09:39.291Z,8.33
2018-12-06T08:12:10.226Z,9.30
2018-12-06T08:14:40.934Z,7.08
2018-12-06T08:17:11.689Z,7.30
2018-12-06T08:19:42.371Z,7.37
2018-12-06T08:22:13.130Z,8.88
2018-12-06T08:24:43.819Z,6.12
2018-12-06T08:27:14.641Z,6.50
2018-12-06T08:29:45.323Z,8.53
2018-12-06T08:32:16.045Z,7.97
2018-12-06T08:34:46.823Z,5.37
2018-12-06T08:37:18.169Z,7.08
2018-12-06T08:39:48.840Z,6.87
2018-12-06T08:42:19.549Z,5.42
2018-12-06T08:44:50.416Z,6.58
2018-12-06T08:47:21.121Z,7.70
2018-12-06T08:49:51.817Z,7.05
2018-12-06T08:52:22.513Z,8.13
2018-12-06T08:54:53.229Z,9.55
2018-12-06T08:57:23.935Z,6.33
2018-12-06T08:59:54.613Z,5.30
2018-12-06T09:02:25.313Z,5.80
2018-12-06T09:04:56.070Z,5.05
2018-12-06T09:07:26.818Z,5.95
2018-12-06T09:09:57.531Z,4.78
2018-12-06T09:12:28.287Z,5.85
2018-12-06T09:14:58.999Z,4.50
2018-12-06T09:17:29.715Z,8.80
2018-12-06T09:20:00.625Z,5.83
2018-12-06T09:22:31.354Z,6.42
2018-12-06T09:25:02.383Z,10.53
2018-12-06T09:27:33.105Z,10.68
2018-12-06T09:30:04.478Z,6.05
2018-12-06T09:32:35.253Z,5.65
2018-12-06T09:35:06.034Z,6.45
2018-12-06T09:37:36.747Z,4.25
2018-12-06T09:40:07.779Z,5.17
2018-12-06T09:42:38.501Z,9.20
2018-12-06T09:45:09.374Z,4.62
2018-12-06T09:47:40.136Z,7.87
2018-12-06T09:50:10.868Z,3.85
2018-12-06T09:52:41.569Z,3.77
2018-12-06T09:55:12.299Z,3.72
2018-12-06T09:57:43.021Z,3.52
2018-12-06T10:00:15.778Z,4.00
2018-12-06T10:02:46.705Z,3.67
2018-12-06T10:05:18.618Z,4.22
2018-12-06T10:07:49.694Z,3.60
2018-12-06T10:10:20.447Z,5.40
2018-12-06T10:12:51.157Z,3.70
2018-12-06T10:15:21.880Z,4.30
2018-12-06T10:17:52.575Z,5.40
2018-12-06T10:20:23.399Z,3.62
2018-12-06T10:22:54.086Z,3.90
2018-12-06T10:25:24.814Z,3.30
2018-12-06T10:27:55.494Z,3.35
2018-12-06T10:30:26.243Z,5.22
2018-12-06T10:32:57.160Z,3.98
2018-12-06T10:35:27.917Z,6.67
2018-12-06T10:37:58.614Z,5.25
2018-12-06T10:40:29.319Z,3.90
2018-12-06T10:43:00.224Z,4.65
2018-12-06T10:45:31.069Z,4.70
2018-12-06T10:48:01.763Z,2.70
2018-12-06T10:50:32.857Z,5.03
2018-12-06T10:53:03.533Z,4.58
2018-12-06T10:55:34.294Z,4.22
2018-12-06T10:58:04.978Z,3.65
2018-12-06T11:00:41.154Z,3.65
2018-12-06T11:03:13.552Z,2.85
2018-12-06T11:05:44.255Z,4.60
2018-12-06T11:08:14.959Z,3.55
2018-12-06T11:10:45.917Z,4.30
2018-12-06T11:13:16.650Z,3.50
2018-12-06T11:15:47.402Z,4.20
2018-12-06T11:18:52.102Z,3.33
2018-12-06T11:21:22.841Z,2.90
2018-12-06T11:23:53.607Z,6.25
2018-12-06T11:26:24.413Z,5.70
2018-12-06T11:28:55.147Z,2.58
2018-12-06T11:31:25.851Z,4.67
2018-12-06T11:33:56.558Z,3.22
2018-12-06T11:36:27.481Z,3.08
2018-12-06T11:38:58.353Z,4.25
2018-12-06T11:41:29.036Z,2.95
2018-12-06T11:43:59.733Z,2.52
2018-12-06T11:46:30.442Z,4.35
2018-12-06T11:49:01.169Z,5.87
2018-12-06T11:51:31.902Z,3.58
2018-12-06T11:54:02.606Z,4.35
2018-12-06T11:56:33.354Z,8.10
2018-12-06T11:59:04.368Z,4.33
2018-12-06T12:01:35.077Z,4.22
2018-12-06T12:04:05.866Z,5.62
2018-12-06T12:06:36.617Z,4.92
2018-12-06T12:09:07.752Z,5.53
2018-12-06T12:11:38.715Z,3.85
2018-12-06T12:14:09.385Z,4.75
2018-12-06T12:16:40.098Z,6.67
2018-12-06T12:19:10.785Z,4.75
2018-12-06T12:21:41.483Z,3.87
2018-12-06T12:24:12.191Z,6.85
2018-12-06T12:26:42.906Z,6.37
2018-12-06T12:29:13.593Z,3.52
2018-12-06T12:31:44.346Z,5.30
2018-12-06T12:34:15.026Z,3.65
2018-12-06T12:36:45.739Z,3.65
2018-12-06T12:39:16.421Z,5.65
2018-12-06T12:41:47.126Z,3.37
2018-12-06T12:44:18.105Z,4.22
2018-12-06T12:46:49.023Z,5.30
2018-12-06T12:49:19.730Z,3.95
2018-12-06T12:51:50.444Z,7.25
2018-12-06T12:54:21.136Z,5.92
2018-12-06T12:56:51.857Z,4.20
2018-12-06T12:59:22.582Z,6.58
2018-12-06T13:01:53.270Z,6.97
2018-12-06T13:04:24.069Z,4.42
2018-12-06T13:06:54.780Z,4.85
2018-12-06T13:09:25.481Z,9.28
2018-12-06T13:11:56.394Z,5.60
2018-12-06T13:14:27.097Z,4.72
2018-12-06T13:16:57.855Z,4.67
2018-12-06T13:19:28.592Z,5.40
2018-12-06T13:21:59.298Z,5.80
2018-12-06T13:24:29.981Z,5.97
2018-12-06T13:27:00.682Z,4.62
2018-12-06T13:29:31.385Z,4.87
2018-12-06T13:32:02.118Z,7.05
2018-12-06T13:34:32.830Z,4.58
2018-12-06T13:37:03.523Z,7.05
2018-12-06T13:39:34.260Z,5.05
2018-12-06T13:42:04.993Z,4.20
2018-12-06T13:44:35.711Z,3.47
2018-12-06T13:47:06.494Z,7.00
2018-12-06T13:49:37.209Z,6.75
2018-12-06T13:52:07.958Z,4.17
2018-12-06T13:54:38.677Z,7.67
2018-12-06T13:57:09.419Z,5.10
2018-12-06T13:59:40.152Z,7.47
2018-12-06T14:02:10.816Z,7.85
2018-12-06T14:04:41.524Z,6.60
2018-12-06T14:07:12.237Z,7.05
2018-12-06T14:09:42.921Z,6.47
2018-12-06T14:12:13.647Z,7.58
2018-12-06T14:14:44.375Z,8.55
2018-12-06T14:17:15.090Z,6.67
2018-12-06T14:19:45.777Z,6.00
2018-12-06T14:22:16.497Z,5.70
2018-12-06T14:24:47.180Z,6.72
2018-12-06T14:27:17.902Z,5.78
2018-12-06T14:29:48.602Z,8.05
2018-12-06T14:32:20.539Z,6.58
2018-12-06T14:34:51.236Z,6.30
2018-12-06T14:37:21.946Z,7.95
2018-12-06T14:39:52.672Z,6.67
2018-12-06T14:42:23.372Z,9.85
2018-12-06T14:44:54.131Z,5.40
2018-12-06T14:47:25.087Z,8.08
2018-12-06T14:49:55.774Z,7.22
2018-12-06T14:52:26.492Z,7.75
2018-12-06T14:54:57.205Z,5.53
2018-12-06T14:57:27.922Z,8.20
2018-12-06T14:59:58.675Z,6.40
2018-12-06T15:02:29.362Z,7.03
2018-12-06T15:05:00.082Z,8.30
2018-12-06T15:07:30.798Z,5.58
2018-12-06T15:10:01.505Z,6.70
2018-12-06T15:12:32.433Z,5.67
2018-12-06T15:15:03.257Z,8.00
2018-12-06T15:17:33.975Z,7.40
2018-12-06T15:20:05.189Z,8.23
2018-12-06T15:22:35.905Z,6.92
2018-12-06T15:25:07.167Z,3.52
2018-12-06T15:27:38.282Z,6.72
2018-12-06T15:30:09.057Z,6.12
2018-12-06T15:32:39.741Z,5.05
2018-12-06T15:35:10.505Z,7.87
2018-12-06T15:37:41.728Z,8.38
2018-12-06T15:40:12.695Z,11.60
2018-12-06T15:42:43.471Z,11.73
2018-12-06T15:45:14.270Z,8.53
2018-12-06T15:47:44.989Z,10.90
2018-12-06T15:50:15.794Z,8.55
2018-12-06T15:52:46.490Z,10.50
2018-12-06T15:55:17.262Z,11.03
2018-12-06T15:57:47.949Z,5.22
2018-12-06T16:00:18.824Z,6.37
2018-12-06T16:02:49.698Z,6.47
2018-12-06T16:05:20.501Z,5.70
2018-12-06T16:07:51.184Z,6.40
2018-12-06T16:10:21.897Z,5.05
2018-12-06T16:12:52.597Z,8.38
2018-12-06T16:15:23.322Z,5.72
2018-12-06T16:17:54.079Z,7.65
2018-12-06T16:20:24.785Z,3.83
2018-12-06T16:22:55.503Z,5.45
2018-12-06T16:25:26.194Z,6.03
2018-12-06T16:27:56.925Z,4.20
2018-12-06T16:30:27.633Z,5.72
2018-12-06T16:32:58.343Z,6.65
2018-12-06T16:35:29.260Z,4.97
2018-12-06T16:38:00.207Z,5.40
2018-12-06T16:40:31.140Z,5.25
2018-12-06T16:43:02.140Z,6.33
2018-12-06T16:45:32.899Z,4.22
2018-12-06T16:48:03.627Z,5.75
2018-12-06T16:50:34.310Z,6.03
2018-12-06T16:53:05.065Z,6.65
2018-12-06T16:55:35.795Z,6.65
2018-12-06T16:58:06.502Z,4.58
2018-12-06T17:00:37.247Z,4.65
2018-12-06T17:03:07.959Z,4.90
2018-12-06T17:05:38.677Z,6.00
2018-12-06T17:08:09.394Z,5.03
2018-12-06T17:10:40.084Z,6.70
2018-12-06T17:13:10.795Z,7.03
2018-12-06T17:15:41.506Z,6.22
2018-12-06T17:18:12.199Z,6.67
2018-12-06T17:20:43.002Z,7.83
2018-12-06T17:23:13.698Z,5.80
2018-12-06T17:25:44.622Z,6.45
2018-12-06T17:28:15.288Z,4.42
2018-12-06T17:30:45.997Z,7.00
2018-12-06T17:33:16.723Z,8.58
2018-12-06T17:35:47.438Z,6.28
2018-12-06T17:38:18.126Z,8.85
2018-12-06T17:40:49.101Z,8.80
2018-12-06T17:43:19.785Z,4.70
2018-12-06T17:45:50.501Z,5.55
2018-12-06T17:48:21.193Z,6.53
2018-12-06T17:50:51.904Z,7.92
2018-12-06T17:53:22.588Z,6.50
2018-12-06T17:55:54.387Z,4.92
2018-12-06T17:58:25.143Z,6.58
2018-12-06T18:00:55.822Z,5.28
2018-12-06T18:03:26.530Z,7.90
2018-12-06T18:05:57.249Z,11.20
2018-12-06T18:08:27.970Z,10.72
2018-12-06T18:10:58.905Z,6.62
2018-12-06T18:13:29.623Z,8.20
2018-12-06T18:16:00.324Z,6.75
2018-12-06T18:18:31.079Z,6.10
2018-12-06T18:21:01.796Z,5.83
2018-12-06T18:23:32.558Z,5.92
2018-12-06T18:26:03.278Z,5.80
2018-12-06T18:28:34.021Z,7.42
2018-12-06T18:31:04.729Z,6.20
2018-12-06T18:33:35.442Z,7.30
2018-12-06T18:36:06.242Z,6.58
2018-12-06T18:38:36.925Z,6.58
2018-12-06T18:41:07.687Z,6.85
2018-12-06T18:43:38.375Z,7.33
2018-12-06T18:46:09.089Z,8.08
2018-12-06T18:48:40.003Z,6.10
2018-12-06T18:51:10.675Z,7.72
2018-12-06T18:53:41.383Z,7.42
2018-12-06T18:56:13.017Z,5.97
2018-12-06T18:58:43.977Z,5.72
2018-12-06T19:01:14.948Z,7.85
2018-12-06T19:03:45.676Z,4.67
2018-12-06T19:06:16.369Z,6.33
2018-12-06T19:08:47.362Z,9.33
2018-12-06T19:11:18.282Z,9.48
2018-12-06T19:13:49.041Z,6.90
2018-12-06T19:16:19.765Z,8.65
2018-12-06T19:18:50.486Z,7.75
2018-12-06T19:21:21.179Z,7.22
2018-12-06T19:23:51.973Z,8.35
2018-12-06T19:26:22.666Z,8.55
2018-12-06T19:28:53.454Z,6.78
2018-12-06T19:31:24.142Z,8.33
2018-12-06T19:33:54.858Z,5.65
2018-12-06T19:36:25.558Z,6.47
2018-12-06T19:38:56.282Z,6.42
2018-12-06T19:41:26.990Z,3.77
2018-12-06T19:43:57.717Z,5.33
2018-12-06T19:46:28.407Z,4.03
2018-12-06T19:48:59.114Z,5.72
2018-12-06T19:51:29.810Z,4.97
2018-12-06T19:54:00.622Z,6.78
2018-12-06T19:56:31.328Z,4.12
2018-12-06T19:59:02.034Z,4.10
2018-12-06T20:01:32.733Z,4.37
2018-12-06T20:04:03.440Z,4.62
2018-12-06T20:06:34.164Z,3.70
2018-12-06T20:09:07.503Z,4.05
2018-12-06T20:11:38.226Z,5.03
2018-12-06T20:14:08.907Z,4.12
2018-12-06T20:16:56.691Z,3.02
2018-12-06T20:19:27.918Z,2.75
2018-12-06T20:21:58.627Z,3.25
2018-12-06T20:24:29.537Z,3.45
2018-12-06T20:27:00.250Z,3.37
2018-12-06T20:29:30.930Z,3.17
2018-12-06T20:32:01.646Z,2.80
2018-12-06T20:34:32.378Z,5.10
2018-12-06T20:37:03.114Z,2.45
2018-12-06T20:39:33.802Z,4.70
2018-12-06T20:42:10.800Z,3.40
2018-12-06T20:47:50.387Z,1.70
2018-12-06T20:50:27.157Z,3.17
2018-12-06T20:53:08.606Z,2.40
2018-12-06T20:55:44.932Z,4.35
2018-12-06T20:58:27.256Z,2.75
2018-12-06T21:01:01.689Z,2.62
2018-12-06T21:03:40.899Z,3.08
2018-12-06T21:06:15.499Z,1.90
2018-12-06T21:08:50.460Z,3.33
2018-12-06T21:11:28.760Z,4.12
2018-12-06T21:14:03.213Z,2.33
2018-12-06T21:16:37.943Z,1.47
2018-12-06T21:19:17.172Z,2.25
2018-12-06T21:21:51.191Z,1.85
2018-12-06T21:24:27.797Z,1.80
2018-12-06T21:27:02.907Z,2.40
2018-12-06T21:29:38.641Z,1.37
2018-12-06T21:32:11.800Z,1.45
2018-12-06T21:34:44.410Z,1.98
2018-12-06T21:37:16.922Z,1.35
2018-12-06T21:39:50.654Z,2.20
2018-12-06T21:42:22.986Z,1.47
2018-12-06T21:44:55.189Z,2.80
2018-12-06T21:47:28.591Z,0.95
2018-12-06T21:50:00.953Z,1.57
2018-12-06T21:52:34.714Z,1.42
2018-12-06T21:55:07.891Z,1.12
2018-12-06T21:57:40.187Z,4.20
2018-12-06T22:00:12.708Z,1.32
2018-12-06T22:02:45.078Z,1.10
2018-12-06T22:05:15.890Z,1.90
2018-12-06T22:07:46.645Z,1.77
2018-12-06T22:10:17.354Z,1.95
2018-12-06T22:12:48.062Z,1.62
2018-12-06T22:15:18.763Z,1.12
2018-12-06T22:17:49.441Z,1.52
2018-12-06T22:20:20.138Z,1.30
2018-12-06T22:22:50.810Z,1.95
2018-12-06T22:25:21.501Z,1.57
2018-12-06T22:27:52.178Z,1.20
2018-12-06T22:30:22.928Z,1.30
2018-12-06T22:32:53.629Z,0.90
2018-12-06T22:35:24.314Z,2.65
2018-12-06T22:37:55.041Z,0.60
2018-12-06T22:40:25.786Z,1.60
2018-12-06T22:42:56.781Z,1.17
2018-12-06T22:45:38.635Z,0.80
2018-12-06T22:48:09.352Z,0.82
2018-12-06T22:50:40.049Z,1.52
2018-12-06T22:53:10.726Z,0.78
2018-12-06T22:55:41.498Z,1.60
2018-12-06T22:58:12.401Z,0.62
2018-12-06T23:00:46.005Z,1.45
2018-12-06T23:03:16.678Z,0.78
2018-12-06T23:05:47.381Z,1.20
2018-12-06T23:08:18.326Z,1.00
2018-12-06T23:10:49.028Z,1.17
2018-12-06T23:13:19.757Z,0.62
2018-12-06T23:15:50.533Z,0.80
2018-12-06T23:18:21.216Z,1.60
2018-12-06T23:20:52.151Z,1.72
2018-12-06T23:23:22.845Z,1.22
2018-12-06T23:25:53.555Z,3.10
2018-12-06T23:28:24.316Z,1.50
2018-12-06T23:30:55.050Z,4.15
2018-12-06T23:33:32.028Z,2.72
2018-12-06T23:35:58.527Z,2.33
2018-12-06T23:38:29.438Z,1.77
2018-12-06T23:41:00.186Z,0.80
2018-12-06T23:43:30.865Z,0.82
2018-12-06T23:46:01.557Z,1.02
2018-12-06T23:48:32.254Z,0.60
2018-12-06T23:51:14.248Z,0.45
2018-12-06T23:53:44.943Z,0.70
2018-12-06T23:56:15.623Z,2.62
2018-12-06T23:58:46.362Z,2.52
